Date,TemperatureHighF,TemperatureAvgF,TemperatureLowF,DewpointHighF,DewpointAvgF,DewpointLowF,HumidityHigh,HumidityAvg,HumidityLow,PressureMaxIn,PressureMinIn,WindSpeedMaxMPH,WindSpeedAvgMPH,GustSpeedMaxMPH,PrecipitationSumIn
2013-1-1,38,24,10,28,11,4,87,59,37,29.87,29.67,8,3,17,0.00
2013-1-2,30,12,3,12,3,-5,88,68,41,30.03,29.85,10,2,21,0.00
2013-1-3,31,12,1,10,2,-6,80,67,40,30.08,29.94,5,1,10,0.00
2013-1-4,37,23,7,28,18,3,96,83,68,29.94,29.72,5,1,11,0.00
2013-1-5,42,30,18,28,20,13,89,70,40,30.27,29.72,7,2,21,0.00
2013-1-6,41,26,17,29,21,13,93,84,60,30.24,29.92,4,1,7,0.00
2013-1-7,35,25,18,26,20,15,97,82,54,30.41,29.94,9,3,16,0.00
2013-1-8,44,30,16,32,25,15,100,82,54,30.36,30.19,8,2,16,0.00
2013-1-9,41,31,21,36,28,21,100,90,72,30.40,29.88,6,1,13,0.00
2013-1-10,51,37,28,33,28,24,96,72,45,30.52,29.90,14,4,30,0.00
2013-1-11,41,32,23,32,25,21,94,79,50,30.53,30.25,5,1,7,0.00
2013-1-12,45,37,35,42,37,34,100,98,88,30.26,30.12,2,0,3,0.00
2013-1-13,45,40,36,45,40,36,100,100,98,30.16,29.96,6,2,11,0.00
2013-1-14,56,44,36,56,42,29,100,94,74,30.22,29.85,7,3,13,0.00
2013-1-15,40,35,31,30,28,23,87,73,58,30.31,30.20,7,2,10,0.00
2013-1-16,35,32,31,34,30,23,100,90,73,30.27,29.78,6,2,8,0.52
2013-1-17,45,29,17,38,24,4,100,82,56,30.14,29.76,9,2,15,0.10
2013-1-18,27,15,9,8,2,-2,78,57,32,30.41,30.09,9,3,14,0.01
2013-1-19,41,32,14,33,24,9,87,72,59,30.37,29.87,7,2,13,0.00
2013-1-20,48,39,28,38,30,16,93,70,45,29.87,29.46,8,4,26,0.00
2013-1-21,33,23,14,18,10,4,80,58,32,30.05,29.83,6,2,16,0.00
2013-1-22,26,17,9,17,9,-4,87,71,49,30.03,29.75,9,4,16,0.00
2013-1-23,17,7,2,-3,-8,-12,63,50,33,30.09,30.01,11,3,23,0.00
2013-1-24,19,13,4,-4,-6,-8,57,42,32,30.07,29.95,12,4,23,0.00
2013-1-25,28,21,15,4,3,3,57,46,34,30.20,30.13,8,4,15,0.00
2013-1-26,19,19,19,0,0,0,43,43,42,30.05,30.03,3,3,10,0.00
2013-1-27,27,22,18,6,4,3,51,46,40,30.38,30.31,7,3,16,0.00
2013-1-28,28,23,16,5,4,3,59,45,35,30.39,30.37,2,1,3,0.00
2013-1-29,38,32,22,30,27,20,94,82,66,30.21,30.11,5,1,8,0.07
2013-1-30,44,42,40,44,42,40,100,100,100,29.96,29.83,3,3,6,0.12
2013-1-31,40,40,40,27,27,27,60,60,60,29.18,29.18,4,4,7,0.00
2013-2-1,34,30,22,15,12,9,59,46,36,29.89,29.64,11,4,19,0.00
2013-2-2,22,22,22,7,7,7,52,52,52,30.20,30.20,1,1,1,0.00
2013-2-3,30,30,30,20,20,20,65,65,65,29.87,29.87,6,5,11,0.00
2013-2-4,29,28,26,18,18,16,68,65,63,29.67,29.67,5,3,10,0.00
2013-2-5,23,20,13,11,5,3,70,53,44,30.03,30.00,3,1,5,0.00
2013-2-12,52,50,47,40,39,37,67,65,63,29.59,29.59,4,3,6,0.00
2013-2-17,23,21,20,13,10,9,65,63,62,29.34,29.22,12,6,25,0.14
2013-2-25,44,42,41,33,33,32,72,69,65,30.16,30.12,4,1,7,0.59
2013-3-11,40,40,40,39,39,39,98,98,98,30.20,30.20,2,2,4,0.00
2013-4-22,55,45,34,37,30,23,94,59,32,30.81,30.67,10,5,13,0.00
2013-4-23,47,39,31,42,37,30,100,92,76,30.67,30.23,10,4,15,0.01
2013-4-24,63,49,42,55,47,42,100,93,72,30.23,29.80,10,5,18,0.11
2013-4-25,70,54,44,54,42,31,100,68,32,30.29,29.80,11,4,18,0.07
2013-4-26,62,48,37,40,34,30,94,60,37,30.46,30.29,9,4,14,0.01
2013-4-27,63,48,36,46,40,36,100,79,48,30.43,30.33,8,2,13,0.00
2013-4-28,68,55,39,49,38,-100,100,61,33,30.35,30.28,10,3,14,0.00
2013-4-29,68,51,38,50,43,38,100,77,41,30.29,30.24,9,3,13,0.00
2013-4-30,71,52,39,51,40,31,100,70,31,30.39,30.26,10,2,14,0.00
2013-5-1,70,52,38,48,39,32,100,67,30,30.47,30.39,8,2,15,0.00
2013-5-2,66,51,42,53,43,36,100,76,48,30.54,30.41,15,3,19,0.00
2013-5-3,68,51,40,49,43,38,97,75,48,30.56,30.41,9,3,11,0.00
2013-5-4,66,49,39,46,42,37,100,78,45,30.42,30.35,8,3,12,0.00
2013-5-5,63,48,36,47,40,36,100,76,44,30.37,30.28,9,3,13,0.00
2013-5-6,66,50,39,51,44,39,100,81,55,30.29,30.24,10,4,16,0.00
2013-5-7,72,60,49,56,53,49,100,79,54,30.20,30.13,10,4,18,0.00
2013-5-8,77,61,48,63,56,48,100,87,61,30.27,30.16,12,3,18,0.11
2013-5-9,62,55,52,61,55,52,100,99,94,30.16,29.94,5,2,7,1.05
2013-5-10,74,57,51,64,53,-100,100,91,65,30.00,29.91,8,2,10,0.03
2013-5-11,65,56,51,61,56,51,100,98,84,29.97,29.72,9,4,19,0.22
2013-5-12,64,57,48,63,55,-100,100,96,80,29.74,29.56,6,2,12,0.08
2013-5-13,64,51,40,46,38,33,99,64,36,30.02,29.74,9,3,15,0.03
2013-5-14,63,51,42,43,38,33,90,63,35,30.03,29.96,9,3,14,0.00
2013-5-15,66,52,37,51,40,32,100,70,29,30.03,29.69,13,4,23,0.20
2013-5-16,80,56,46,59,30,-100,100,71,31,29.81,29.59,9,3,14,0.20
2013-5-17,69,56,46,50,37,-100,87,61,37,30.22,29.81,10,3,19,0.00
2013-5-18,67,53,43,48,45,40,99,76,46,30.37,30.22,9,3,15,0.00
2013-5-19,69,54,46,54,49,45,100,85,54,30.38,30.26,7,3,11,0.08
2013-5-20,75,58,51,67,56,51,100,94,66,30.26,29.94,7,2,11,0.70
2013-5-21,53,51,49,52,50,49,100,98,95,30.08,29.97,7,4,11,0.15
2013-5-22,59,52,49,57,51,49,100,97,87,30.13,29.93,8,3,13,0.63
2013-5-23,62,55,49,60,54,49,100,98,92,29.97,29.84,9,3,23,0.09
2013-5-24,62,59,50,62,59,50,100,100,100,29.85,29.67,9,4,23,1.42
2013-5-25,54,50,47,54,50,47,100,99,95,29.84,29.66,15,7,23,0.47
2013-5-26,58,50,43,53,47,42,100,90,70,29.98,29.59,9,4,14,0.59
2013-5-27,75,56,38,48,42,38,100,66,31,30.16,29.97,9,3,18,0.01
2013-5-28,74,57,41,51,43,39,99,65,30,30.26,30.16,8,2,14,0.00
2013-5-29,56,53,48,56,53,46,100,99,88,30.24,30.02,8,2,16,0.12
2013-5-30,91,68,54,70,61,54,100,81,45,30.05,29.98,8,2,12,0.01
2013-5-31,92,72,57,70,64,57,100,77,48,30.06,29.93,9,2,16,0.00
2013-6-1,89,74,60,71,65,60,100,76,52,29.95,29.85,10,3,18,0.00
2013-6-2,84,71,63,70,63,-100,99,81,57,29.85,29.72,12,4,22,0.20
2013-6-3,75,64,58,70,62,57,100,93,75,29.85,29.76,9,3,18,0.22
2013-6-4,74,62,51,57,50,44,100,69,39,30.07,29.79,10,3,19,0.01
2013-6-5,79,60,48,52,48,44,91,66,32,30.19,30.07,7,2,12,0.00
2013-6-6,77,61,51,55,51,45,97,74,36,30.24,30.16,7,2,11,0.00
2013-6-7,63,57,53,55,52,48,100,85,61,30.18,29.98,8,4,11,0.34
2013-6-8,71,60,53,63,58,53,100,92,70,29.98,29.65,11,4,19,1.23
2013-6-9,78,64,57,64,59,57,100,86,57,30.16,29.98,8,2,11,0.16
2013-6-10,75,62,54,60,56,54,100,83,54,30.24,30.09,7,2,11,0.01
2013-6-11,57,56,54,57,55,54,100,99,96,30.09,29.57,12,4,19,0.87
2013-6-12,64,59,54,62,57,54,100,95,87,29.76,29.53,7,4,16,0.28
2013-6-13,77,62,53,61,55,53,100,79,45,29.81,29.77,9,2,12,0.01
2013-6-14,80,61,55,60,56,52,100,85,43,29.77,29.69,8,2,11,0.01
2013-6-15,82,61,50,55,51,46,100,74,31,29.92,29.76,7,2,15,0.00
2013-6-16,80,64,51,58,54,50,96,73,44,29.93,29.75,9,2,13,0.00
2013-6-17,83,67,54,68,61,54,100,85,50,29.90,29.75,9,2,16,0.53
2013-6-18,72,63,56,61,58,54,100,85,56,30.02,29.87,6,1,8,0.53
2013-6-19,80,62,53,58,53,47,100,77,34,30.14,29.95,8,2,13,0.00
2013-6-20,81,65,52,58,52,49,93,67,37,30.27,30.14,8,3,14,0.00
2013-6-22,85,72,65,67,64,60,95,79,47,30.20,30.14,8,2,10,0.01
2013-6-23,77,68,64,68,65,63,100,91,67,30.18,30.00,8,2,11,0.30
2013-6-24,94,73,64,74,69,64,100,88,49,30.00,29.87,6,1,8,0.21
2013-6-25,92,76,68,74,69,66,100,80,50,29.91,29.72,11,3,16,0.23
2013-6-26,80,68,59,73,66,59,100,94,73,29.93,29.72,11,2,15,0.92
2013-6-27,69,60,56,63,58,56,100,95,76,29.93,29.87,7,3,12,0.62
2013-6-28,67,61,57,67,61,57,100,100,100,29.88,29.58,15,5,20,0.91
2013-6-29,74,66,63,71,66,63,100,98,88,29.72,29.58,8,3,19,0.03
2013-6-30,84,70,62,73,67,62,100,90,66,29.97,29.72,7,4,13,0.01
2013-7-1,80,69,63,73,68,62,100,95,74,30.14,29.97,7,2,10,0.32
2013-7-2,66,63,60,66,63,60,100,100,99,30.26,30.12,5,2,11,0.36
2013-7-3,79,65,59,70,63,59,100,94,72,30.24,30.13,8,2,13,0.07
2013-7-4,92,75,63,76,70,63,100,84,56,30.20,30.06,7,2,12,0.01
2013-7-5,92,76,68,75,71,68,100,85,54,30.15,30.03,9,2,14,0.00
2013-7-6,92,80,71,76,73,68,100,81,57,30.07,29.96,3,0,5,0.00
2013-7-7,92,77,65,74,68,63,94,77,49,30.01,29.93,5,1,8,0.00
2013-7-8,79,70,66,72,66,-100,100,90,62,30.12,29.94,6,2,11,0.47
2013-7-9,72,66,62,68,64,61,100,93,84,30.16,30.11,6,2,9,0.02
2013-7-10,72,64,61,67,61,-100,100,94,78,30.14,29.82,6,3,8,0.04
2013-7-11,83,72,67,75,70,67,100,93,67,30.01,29.78,6,1,8,0.05
2013-7-12,83,68,61,70,61,58,99,79,50,30.25,30.00,7,3,11,0.01
2013-7-13,85,67,59,66,61,58,100,83,43,30.35,30.25,7,2,10,0.00
2013-7-14,92,74,63,72,67,63,100,81,51,30.33,30.21,8,2,12,0.00
2013-7-15,95,73,66,72,68,66,100,86,43,30.22,30.09,6,1,8,0.00
2013-7-16,95,78,69,73,69,66,96,76,47,30.20,30.10,6,2,10,0.00
2013-7-17,87,75,67,72,68,66,99,82,58,30.22,29.98,10,3,16,0.28
2013-7-18,89,74,68,76,69,62,100,86,51,30.06,29.97,9,2,16,0.30
2013-7-19,91,77,69,78,72,69,100,87,62,30.01,29.69,9,3,14,0.00
2013-7-20,90,78,69,74,69,-100,99,78,56,29.82,29.64,9,3,12,0.00
2013-7-21,80,69,63,65,61,55,96,77,46,30.07,29.82,8,2,12,0.00
2013-7-22,79,66,61,67,61,57,100,87,51,30.08,29.98,6,2,9,0.00
2013-7-23,72,66,62,72,66,61,100,99,96,29.98,29.58,6,2,8,1.32
2013-7-24,85,70,60,74,65,53,100,86,62,30.02,29.61,7,2,13,0.01
2013-7-25,70,60,57,61,54,50,96,81,62,30.15,30.01,11,4,18,0.04
2013-7-26,70,68,65,68,65,63,99,91,87,29.98,29.92,11,5,18,0.27
2013-7-27,85,70,61,69,64,61,100,83,55,30.08,29.95,8,2,13,0.01
2013-7-28,76,67,62,70,65,62,100,94,74,30.09,30.05,8,2,13,0.05
2013-7-29,77,67,63,69,65,63,100,94,74,30.11,30.03,8,2,11,0.26
2013-7-30,82,67,61,70,63,59,100,90,52,30.10,30.05,6,2,11,0.25
2013-7-31,83,67,57,64,60,57,100,80,48,30.15,30.09,8,2,14,0.01
2013-8-1,82,66,59,69,63,59,100,91,59,30.09,29.93,7,2,13,0.00
2013-8-2,79,67,63,69,65,63,100,95,71,29.92,29.79,6,2,8,0.58
2013-8-3,79,66,60,67,63,59,100,90,60,29.85,29.76,7,1,11,0.05
2013-8-4,82,63,56,64,60,56,100,91,47,29.87,29.78,7,1,12,0.11
2013-8-5,78,59,53,60,54,49,100,85,45,30.06,29.85,6,1,13,0.01
2013-8-6,81,61,50,58,52,47,96,75,42,30.19,30.05,9,2,15,0.00
2013-8-7,79,63,53,65,59,53,100,88,50,30.22,30.16,8,2,13,0.00
2013-8-8,75,66,60,69,64,60,100,94,82,30.16,30.05,7,2,14,0.23
2013-8-9,73,68,67,72,68,66,100,100,96,30.06,29.76,10,4,23,0.85
2013-8-10,85,72,64,72,64,55,100,80,39,29.92,29.77,7,2,13,0.01
2013-8-11,81,68,56,59,57,55,99,70,43,30.05,30.01,7,2,10,0.00
2013-8-12,83,65,57,64,59,56,100,83,49,30.03,29.95,6,2,11,0.00
2013-8-13,78,66,59,69,61,-100,100,87,70,29.95,29.75,7,2,14,0.00
2013-8-14,79,66,57,68,59,-100,100,84,58,29.91,29.65,5,2,14,0.00
2013-8-15,80,59,52,58,44,-100,100,78,42,30.05,29.91,5,1,8,0.00
2013-8-16,78,63,57,61,58,57,100,87,53,30.21,30.12,3,1,5,0.00
2013-8-17,82,68,58,62,58,55,100,73,45,30.29,30.26,6,2,10,0.00
2013-8-18,78,63,55,63,56,-100,99,84,51,30.29,30.09,5,1,7,0.00
2013-8-19,83,67,58,68,57,-100,100,83,55,30.08,29.93,5,1,8,0.00
2013-8-20,88,68,61,68,60,-100,99,82,46,30.11,29.98,6,2,10,0.00
2013-8-21,88,72,62,71,64,62,100,80,48,30.15,30.02,7,2,10,0.00
2013-8-22,87,71,62,70,66,62,100,86,54,30.02,29.80,7,2,11,0.00
2013-8-23,81,68,58,67,58,52,96,73,40,30.16,29.80,7,3,14,0.00
2013-8-24,79,59,51,54,52,49,98,80,38,30.34,30.16,5,2,8,0.00
2013-8-25,82,60,53,59,53,-100,100,82,40,30.37,30.19,6,2,11,0.00
2013-8-26,79,66,59,67,63,58,100,90,65,30.19,29.90,6,2,9,0.10
2013-8-27,85,69,62,70,65,62,100,88,57,29.92,29.87,6,1,8,0.01
2013-8-28,84,70,65,67,65,63,99,83,56,30.05,29.93,5,2,8,0.02
2013-8-29,73,66,57,66,62,55,100,88,71,30.15,30.03,8,3,16,0.02
2013-8-30,80,65,56,66,62,55,100,89,61,30.07,29.81,6,2,10,0.00
2013-8-31,86,71,65,70,67,64,98,90,57,29.85,29.80,7,2,11,0.00
2013-9-1,86,72,67,74,67,-100,100,87,61,29.95,29.80,7,2,11,0.01
2013-9-2,71,66,62,71,66,62,100,100,97,29.95,29.78,10,4,16,4.06
2013-9-3,80,70,64,74,68,64,100,94,72,29.81,29.72,7,2,13,0.75
2013-9-4,82,68,58,65,62,58,100,82,53,29.92,29.78,8,2,12,0.00
2013-9-5,70,60,50,61,54,47,99,82,52,30.16,29.91,5,2,11,0.22
2013-9-6,70,53,44,54,48,44,100,85,41,30.22,30.06,6,2,10,0.13
2013-9-7,75,61,50,61,56,50,100,85,49,30.06,29.83,7,2,11,0.00
2013-9-8,71,58,47,62,49,-100,100,77,48,30.09,29.74,9,3,13,0.09
2013-9-9,66,55,43,55,48,41,95,80,48,30.22,30.09,7,3,13,0.01
2013-9-10,68,61,54,64,59,52,100,92,79,30.14,30.06,7,2,9,0.00
2013-9-11,82,70,62,74,67,62,100,92,72,30.08,29.93,8,2,12,0.88
2013-9-12,76,68,64,72,67,64,100,99,82,30.02,29.70,7,2,11,1.73
2013-9-13,74,65,57,72,65,57,100,99,92,29.74,29.61,5,2,10,0.92
2013-9-14,74,62,54,65,58,52,100,89,64,30.03,29.74,4,2,8,0.37
2013-9-15,65,54,48,57,49,-100,100,90,58,30.13,30.02,7,2,11,0.00
2013-9-16,68,56,45,60,53,41,100,90,69,30.26,29.98,8,2,13,0.02
2013-9-17,67,51,39,50,44,38,98,80,45,30.40,30.27,6,2,14,0.02
2013-9-18,51,45,44,48,45,44,100,100,99,30.31,30.12,1,0,2,0.00
2013-9-19,78,58,47,58,51,47,100,81,46,30.14,30.05,6,1,10,0.00
2013-9-20,80,60,49,61,54,49,100,82,47,30.12,30.03,5,2,8,0.00
2013-9-21,66,61,57,63,60,57,100,95,83,30.06,29.80,9,4,18,0.00
2013-9-22,69,62,50,65,59,-100,100,92,82,29.80,29.61,12,5,22,0.22
2013-9-23,63,51,43,49,45,43,100,83,53,29.96,29.78,6,2,16,0.09
2013-9-24,59,51,44,48,45,43,96,80,59,29.95,29.85,8,2,14,0.00
2013-9-25,65,55,44,51,48,43,97,78,56,29.98,29.87,8,3,12,0.00
2013-9-26,67,56,44,53,49,44,100,81,57,30.15,29.98,9,4,14,0.00
2013-9-27,72,60,52,55,53,52,100,81,54,30.26,30.14,6,2,10,0.00
2013-9-28,75,57,50,57,52,49,100,87,52,30.35,30.27,7,2,11,0.00
2013-9-29,68,52,47,57,48,-100,100,91,57,30.29,30.14,6,1,8,0.00
2013-9-30,67,52,46,56,50,46,100,93,58,30.16,29.98,6,1,8,0.00
2013-10-1,57,54,48,55,53,48,100,94,91,29.98,29.85,2,0,6,0.00
2013-10-2,80,62,52,63,57,52,100,85,52,29.88,29.78,4,1,10,0.00
2013-10-3,79,64,52,55,52,47,97,67,39,30.08,30.01,5,1,9,0.00
2013-10-4,73,60,48,60,53,48,100,80,53,30.10,30.03,4,1,8,0.00
2013-10-5,65,57,50,54,49,44,98,74,48,30.16,30.10,5,2,7,0.00
2013-10-6,59,53,49,51,46,40,100,79,53,30.29,30.16,7,4,9,0.07
2013-10-7,66,60,50,66,59,50,100,100,97,30.23,29.81,17,6,32,0.36
2013-10-8,66,54,44,62,49,42,100,85,50,30.40,29.84,6,2,14,0.06
2013-10-9,65,48,40,47,42,40,100,85,44,30.47,30.38,6,2,8,0.00
2013-10-10,65,50,40,55,46,40,100,88,51,30.38,30.20,6,1,10,0.00
2013-10-11,69,55,47,57,52,47,100,89,59,30.20,30.13,4,1,6,0.00
2013-10-12,64,54,51,57,51,48,100,89,68,30.44,30.18,7,3,11,0.00
2013-10-13,62,52,43,52,46,-100,100,83,56,30.47,30.41,5,2,7,0.00
2013-10-14,62,53,42,52,46,42,100,82,57,30.41,30.26,11,2,16,0.00
2013-10-15,70,59,53,56,54,52,97,83,61,30.29,30.23,7,2,10,0.00
2013-10-16,63,58,54,57,55,53,99,92,73,30.23,29.92,6,2,10,0.00
2013-10-17,70,58,52,60,56,52,100,92,68,29.92,29.75,7,2,10,0.00
2013-10-18,69,58,48,62,54,47,100,88,60,29.84,29.59,7,2,14,0.33
2013-10-19,66,52,42,50,46,42,100,83,52,29.94,29.77,8,2,12,0.01
2013-10-20,67,54,42,54,41,-100,100,68,37,29.96,29.67,6,2,13,0.00
2013-10-21,65,49,38,49,42,37,99,82,44,30.08,29.96,6,1,10,0.00
2013-10-22,64,55,45,55,51,45,100,90,67,29.98,29.71,10,3,15,0.05
2013-10-23,57,48,38,45,41,38,100,80,54,29.77,29.59,7,1,10,0.05
2013-10-24,56,45,35,42,35,31,95,71,42,29.82,29.59,6,2,15,0.01
2013-10-25,53,44,33,41,33,29,89,67,49,30.11,29.82,7,2,14,0.00
2013-10-26,54,42,30,40,35,29,99,75,56,30.11,29.85,9,3,15,0.00
2013-10-27,60,46,36,46,38,-100,100,78,50,30.00,29.77,6,2,13,0.13
2013-10-28,59,42,33,42,33,-100,98,75,50,30.32,30.00,7,2,16,0.01
2013-10-29,51,34,27,30,28,24,96,79,39,30.42,30.32,6,1,7,0.00
2013-10-30,52,37,30,38,31,29,99,82,42,30.34,30.15,4,1,7,0.00
2013-10-31,58,43,31,58,42,29,100,98,89,30.23,29.79,10,2,23,0.28
2013-11-1,64,58,53,61,57,52,100,96,90,29.76,29.36,11,6,28,0.40
2013-11-2,66,52,42,52,47,42,100,86,54,29.74,29.56,7,1,17,0.01
2013-11-3,47,39,29,45,29,-100,93,72,46,30.39,29.76,10,5,16,0.02
2013-11-4,44,32,26,27,23,21,93,72,42,30.69,30.40,9,2,13,0.01
2013-11-5,29,28,28,28,27,26,96,94,92,30.70,30.68,3,2,5,0.00
2013-11-13,39,29,25,20,17,16,77,63,42,30.16,30.08,7,2,16,0.00
2013-11-14,52,36,26,31,27,20,96,71,42,30.08,29.97,3,1,6,0.00
2013-11-15,54,38,29,40,32,28,100,82,39,30.14,30.06,5,1,6,0.00
2013-11-16,51,39,33,43,35,-100,100,88,59,30.33,30.15,3,1,6,0.00
2013-11-17,54,47,38,53,45,38,100,94,79,30.34,29.93,10,2,20,0.12
2013-11-18,64,52,44,60,51,40,100,95,75,29.91,29.47,13,4,21,0.38
2013-11-19,42,37,31,39,27,20,93,67,47,30.16,29.56,13,4,27,0.01
2013-11-20,44,32,26,23,19,17,76,60,35,30.60,30.18,11,3,18,0.00
2013-11-21,48,33,24,29,24,19,90,73,36,30.60,30.33,5,1,8,0.00
2013-11-22,41,36,31,38,32,26,99,86,68,30.31,29.77,3,1,5,0.04
2013-11-23,46,35,26,40,26,-100,100,73,41,29.79,29.66,11,3,21,0.01
2013-11-24,30,24,19,26,12,6,93,61,45,29.98,29.66,17,5,38,0.00
2013-11-25,33,23,17,20,9,4,70,55,37,30.29,29.98,9,2,21,0.00
2013-11-26,38,33,29,32,28,19,98,82,59,30.29,30.15,4,1,8,0.01
2013-11-27,58,48,33,58,48,33,100,100,99,30.13,29.14,20,6,35,2.67
2013-11-28,39,30,20,39,24,12,100,79,47,30.37,29.27,9,2,18,0.16
2013-11-29,29,21,17,18,15,13,88,77,56,30.52,30.37,7,1,13,0.00
2013-12-2,39,36,35,39,36,35,100,100,100,29.94,29.91,4,2,7,0.75
2013-12-3,43,36,30,42,36,30,100,100,95,29.91,29.83,6,2,11,0.01
2013-12-4,43,33,27,35,31,27,100,91,70,30.19,29.85,6,1,11,0.00
2013-12-5,47,37,27,47,36,27,100,99,96,30.24,29.90,3,1,11,0.01
2013-12-6,46,42,37,46,42,35,100,99,92,30.10,29.84,4,1,8,0.09
2013-12-7,37,36,35,35,33,32,93,91,88,30.08,30.05,2,1,5,0.08
2013-12-14,14,13,13,11,2,-100,91,67,55,30.59,30.38,8,5,11,0.00
2013-12-15,19,15,12,17,13,10,99,91,81,30.36,29.39,13,6,24,0.00
2013-12-16,27,14,5,16,8,-2,100,80,42,30.19,29.65,8,1,21,0.00
2013-12-17,18,8,-2,12,2,-7,93,78,54,30.29,30.05,8,2,12,0.60
2013-12-18,32,18,12,23,16,10,100,91,68,30.02,29.85,8,3,16,0.16
2013-12-19,36,25,15,29,23,15,100,92,73,30.08,29.93,4,1,8,0.05
2013-12-20,43,33,24,39,32,24,100,97,83,30.11,29.91,2,0,5,0.03
2013-12-21,37,34,32,35,32,-100,100,97,91,29.97,29.85,4,1,6,0.06
2013-12-22,34,30,27,34,30,27,100,100,97,30.10,29.90,8,4,16,0.45
2013-12-23,34,31,28,34,31,28,100,100,100,30.11,29.98,5,1,8,0.21
2013-12-24,34,27,14,34,27,14,100,98,87,30.18,30.06,0,0,0,0.01
2013-12-25,21,12,7,16,11,6,100,95,81,30.56,30.18,0,0,0,0.00
2013-12-26,29,22,17,28,21,16,100,97,89,30.50,30.09,0,0,0,0.24
2013-12-27,37,22,15,32,21,15,100,98,81,30.21,30.13,2,0,5,0.10
2013-12-28,37,27,18,33,25,-100,100,96,86,30.16,29.96,4,1,8,0.04